sensor_id;sensor_type;location;lat;lon;timestamp;temperature;humidity
10070;DHT22;5074;53.720;10.014;2022-08-01T00:01:15;17.90;99.90
10070;DHT22;5074;53.720;10.014;2022-08-01T00:03:43;17.90;99.90
10070;DHT22;5074;53.720;10.014;2022-08-01T00:06:12;17.90;99.90
10070;DHT22;5074;53.720;10.014;2022-08-01T00:08:41;17.80;99.90
10070;DHT22;5074;53.720;10.014;2022-08-01T00:11:09;17.90;99.90
10070;DHT22;5074;53.720;10.014;2022-08-01T00:13:37;17.90;99.90
10070;DHT22;5074;53.720;10.014;2022-08-01T00:16:05;17.80;99.90
10070;DHT22;5074;53.720;10.014;2022-08-01T00:18:33;17.80;99.90
10070;DHT22;5074;53.720;10.014;2022-08-01T00:21:02;17.80;99.90
10070;DHT22;5074;53.720;10.014;2022-08-01T00:23:31;17.80;99.90
10070;DHT22;5074;53.720;10.014;2022-08-01T00:25:59;17.80;99.90
10070;DHT22;5074;53.720;10.014;2022-08-01T00:28:28;17.80;99.90
10070;DHT22;5074;53.720;10.014;2022-08-01T00:30:56;17.80;99.90
10070;DHT22;5074;53.720;10.014;2022-08-01T00:33:24;17.80;99.90
10070;DHT22;5074;53.720;10.014;2022-08-01T00:35:52;17.80;99.90
10070;DHT22;5074;53.720;10.014;2022-08-01T00:38:20;17.80;99.90
10070;DHT22;5074;53.720;10.014;2022-08-01T00:40:50;17.80;99.90
10070;DHT22;5074;53.720;10.014;2022-08-01T00:43:18;17.80;99.90
10070;DHT22;5074;53.720;10.014;2022-08-01T00:45:46;17.80;99.90
10070;DHT22;5074;53.720;10.014;2022-08-01T00:48:14;17.80;99.90
10070;DHT22;5074;53.720;10.014;2022-08-01T00:50:42;17.80;99.90
10070;DHT22;5074;53.720;10.014;2022-08-01T00:53:11;17.80;99.90
10070;DHT22;5074;53.720;10.014;2022-08-01T00:55:44;17.80;99.90
10070;DHT22;5074;53.720;10.014;2022-08-01T00:58:15;17.80;99.90
10070;DHT22;5074;53.720;10.014;2022-08-01T01:00:44;17.80;99.90
10070;DHT22;5074;53.720;10.014;2022-08-01T01:03:20;17.70;99.90
10070;DHT22;5074;53.720;10.014;2022-08-01T01:06:26;17.80;99.90
10070;DHT22;5074;53.720;10.014;2022-08-01T01:09:02;17.80;99.90
10070;DHT22;5074;53.720;10.014;2022-08-01T01:11:44;17.80;99.90
10070;DHT22;5074;53.720;10.014;2022-08-01T01:14:18;17.80;99.90
10070;DHT22;5074;53.720;10.014;2022-08-01T01:16:55;17.80;99.90
10070;DHT22;5074;53.720;10.014;2022-08-01T01:19:28;17.80;99.90
10070;DHT22;5074;53.720;10.014;2022-08-01T01:24:58;17.70;99.90
10070;DHT22;5074;53.720;10.014;2022-08-01T01:27:39;17.70;99.90
10070;DHT22;5074;53.720;10.014;2022-08-01T01:30:14;17.80;99.90
10070;DHT22;5074;53.720;10.014;2022-08-01T01:32:43;17.70;99.90
10070;DHT22;5074;53.720;10.014;2022-08-01T01:35:15;17.70;99.90
10070;DHT22;5074;53.720;10.014;2022-08-01T01:37:47;17.70;99.90
10070;DHT22;5074;53.720;10.014;2022-08-01T01:40:18;17.70;99.90
10070;DHT22;5074;53.720;10.014;2022-08-01T01:42:48;17.70;99.90
10070;DHT22;5074;53.720;10.014;2022-08-01T01:45:19;17.70;99.90
10070;DHT22;5074;53.720;10.014;2022-08-01T01:47:49;17.60;99.90
10070;DHT22;5074;53.720;10.014;2022-08-01T01:50:19;17.60;99.90
10070;DHT22;5074;53.720;10.014;2022-08-01T01:52:48;17.60;99.90
10070;DHT22;5074;53.720;10.014;2022-08-01T01:55:17;17.60;99.90
10070;DHT22;5074;53.720;10.014;2022-08-01T01:57:48;17.60;99.90
10070;DHT22;5074;53.720;10.014;2022-08-01T02:00:21;17.50;99.90
10070;DHT22;5074;53.720;10.014;2022-08-01T02:02:51;17.50;99.90
10070;DHT22;5074;53.720;10.014;2022-08-01T02:05:21;17.50;99.90
10070;DHT22;5074;53.720;10.014;2022-08-01T02:07:51;17.40;99.90
10070;DHT22;5074;53.720;10.014;2022-08-01T02:10:25;17.40;99.90
10070;DHT22;5074;53.720;10.014;2022-08-01T02:12:54;17.40;99.90
10070;DHT22;5074;53.720;10.014;2022-08-01T02:15:26;17.40;99.90
10070;DHT22;5074;53.720;10.014;2022-08-01T02:17:57;17.40;99.90
10070;DHT22;5074;53.720;10.014;2022-08-01T02:20:27;17.40;99.90
10070;DHT22;5074;53.720;10.014;2022-08-01T02:22:58;17.40;99.90
10070;DHT22;5074;53.720;10.014;2022-08-01T02:25:31;17.40;99.90
10070;DHT22;5074;53.720;10.014;2022-08-01T02:28:26;17.40;99.90
10070;DHT22;5074;53.720;10.014;2022-08-01T02:31:00;17.40;99.90
10070;DHT22;5074;53.720;10.014;2022-08-01T02:33:33;17.40;99.90
10070;DHT22;5074;53.720;10.014;2022-08-01T02:36:04;17.30;99.90
10070;DHT22;5074;53.720;10.014;2022-08-01T02:38:55;17.30;99.90
10070;DHT22;5074;53.720;10.014;2022-08-01T02:41:24;17.30;99.90
10070;DHT22;5074;53.720;10.014;2022-08-01T02:43:56;17.30;99.90
10070;DHT22;5074;53.720;10.014;2022-08-01T02:46:29;17.30;99.90
10070;DHT22;5074;53.720;10.014;2022-08-01T02:49:03;17.30;99.90
10070;DHT22;5074;53.720;10.014;2022-08-01T02:51:34;17.30;99.90
10070;DHT22;5074;53.720;10.014;2022-08-01T02:54:04;17.30;99.90
10070;DHT22;5074;53.720;10.014;2022-08-01T02:56:34;17.30;99.90
10070;DHT22;5074;53.720;10.014;2022-08-01T02:59:04;17.30;99.90
10070;DHT22;5074;53.720;10.014;2022-08-01T03:01:35;17.30;99.90
10070;DHT22;5074;53.720;10.014;2022-08-01T03:04:07;17.30;99.90
10070;DHT22;5074;53.720;10.014;2022-08-01T03:06:36;17.30;99.90
10070;DHT22;5074;53.720;10.014;2022-08-01T03:09:09;17.30;99.90
10070;DHT22;5074;53.720;10.014;2022-08-01T03:11:42;17.30;99.90
10070;DHT22;5074;53.720;10.014;2022-08-01T03:14:11;17.30;99.90
10070;DHT22;5074;53.720;10.014;2022-08-01T03:16:43;17.30;99.90
10070;DHT22;5074;53.720;10.014;2022-08-01T03:19:13;17.30;99.90
10070;DHT22;5074;53.720;10.014;2022-08-01T03:21:43;17.30;99.90
10070;DHT22;5074;53.720;10.014;2022-08-01T03:24:12;17.30;99.90
10070;DHT22;5074;53.720;10.014;2022-08-01T03:26:42;17.30;99.90
10070;DHT22;5074;53.720;10.014;2022-08-01T03:29:12;17.30;99.90
10070;DHT22;5074;53.720;10.014;2022-08-01T03:31:45;17.30;99.90
10070;DHT22;5074;53.720;10.014;2022-08-01T03:34:15;17.20;99.90
10070;DHT22;5074;53.720;10.014;2022-08-01T03:36:47;17.30;99.90
10070;DHT22;5074;53.720;10.014;2022-08-01T03:39:22;17.20;99.90
10070;DHT22;5074;53.720;10.014;2022-08-01T03:41:57;17.20;99.90
10070;DHT22;5074;53.720;10.014;2022-08-01T03:44:28;17.20;99.90
10070;DHT22;5074;53.720;10.014;2022-08-01T03:47:04;17.20;99.90
10070;DHT22;5074;53.720;10.014;2022-08-01T03:49:35;17.20;99.90
10070;DHT22;5074;53.720;10.014;2022-08-01T03:52:08;17.20;99.90
10070;DHT22;5074;53.720;10.014;2022-08-01T03:54:38;17.20;99.90
10070;DHT22;5074;53.720;10.014;2022-08-01T03:57:17;17.20;99.90
10070;DHT22;5074;53.720;10.014;2022-08-01T04:00:03;17.20;99.90
10070;DHT22;5074;53.720;10.014;2022-08-01T04:02:36;17.20;99.90
10070;DHT22;5074;53.720;10.014;2022-08-01T04:05:05;17.20;99.90
10070;DHT22;5074;53.720;10.014;2022-08-01T04:07:34;17.20;99.90
10070;DHT22;5074;53.720;10.014;2022-08-01T04:10:03;17.20;99.90
10070;DHT22;5074;53.720;10.014;2022-08-01T04:12:33;17.20;99.90
10070;DHT22;5074;53.720;10.014;2022-08-01T04:15:02;17.20;99.90
10070;DHT22;5074;53.720;10.014;2022-08-01T04:17:31;17.20;99.90
10070;DHT22;5074;53.720;10.014;2022-08-01T04:20:00;17.20;99.90
10070;DHT22;5074;53.720;10.014;2022-08-01T04:22:29;17.20;99.90
10070;DHT22;5074;53.720;10.014;2022-08-01T04:25:03;17.20;99.90
10070;DHT22;5074;53.720;10.014;2022-08-01T04:27:38;17.20;99.90
10070;DHT22;5074;53.720;10.014;2022-08-01T04:30:17;17.20;99.90
10070;DHT22;5074;53.720;10.014;2022-08-01T04:32:48;17.30;99.90
10070;DHT22;5074;53.720;10.014;2022-08-01T04:35:19;17.30;99.90
10070;DHT22;5074;53.720;10.014;2022-08-01T04:38:08;17.30;99.90
10070;DHT22;5074;53.720;10.014;2022-08-01T04:40:39;17.30;99.90
10070;DHT22;5074;53.720;10.014;2022-08-01T04:43:08;17.20;99.90
10070;DHT22;5074;53.720;10.014;2022-08-01T04:45:40;17.20;99.90
10070;DHT22;5074;53.720;10.014;2022-08-01T04:48:10;17.20;99.90
10070;DHT22;5074;53.720;10.014;2022-08-01T04:50:40;17.20;99.90
10070;DHT22;5074;53.720;10.014;2022-08-01T04:53:12;17.20;99.90
10070;DHT22;5074;53.720;10.014;2022-08-01T04:55:41;17.10;99.90
10070;DHT22;5074;53.720;10.014;2022-08-01T04:58:09;17.10;99.90
10070;DHT22;5074;53.720;10.014;2022-08-01T05:00:43;17.00;99.90
10070;DHT22;5074;53.720;10.014;2022-08-01T05:03:11;17.00;99.90
10070;DHT22;5074;53.720;10.014;2022-08-01T05:05:40;17.00;99.90
10070;DHT22;5074;53.720;10.014;2022-08-01T05:08:08;17.00;99.90
10070;DHT22;5074;53.720;10.014;2022-08-01T05:10:36;17.00;99.90
10070;DHT22;5074;53.720;10.014;2022-08-01T05:13:04;16.90;99.90
10070;DHT22;5074;53.720;10.014;2022-08-01T05:15:34;16.90;99.90
10070;DHT22;5074;53.720;10.014;2022-08-01T05:18:03;17.00;99.90
10070;DHT22;5074;53.720;10.014;2022-08-01T05:20:33;17.00;99.90
10070;DHT22;5074;53.720;10.014;2022-08-01T05:23:02;17.00;99.90
10070;DHT22;5074;53.720;10.014;2022-08-01T05:25:31;17.00;99.90
10070;DHT22;5074;53.720;10.014;2022-08-01T05:28:19;17.00;99.90
10070;DHT22;5074;53.720;10.014;2022-08-01T05:30:47;17.00;99.90
10070;DHT22;5074;53.720;10.014;2022-08-01T05:33:15;17.00;99.90
10070;DHT22;5074;53.720;10.014;2022-08-01T05:35:44;17.10;99.90
10070;DHT22;5074;53.720;10.014;2022-08-01T05:38:16;17.10;99.90
10070;DHT22;5074;53.720;10.014;2022-08-01T05:40:44;17.10;99.90
10070;DHT22;5074;53.720;10.014;2022-08-01T05:43:12;17.10;99.90
10070;DHT22;5074;53.720;10.014;2022-08-01T05:45:40;17.10;99.90
10070;DHT22;5074;53.720;10.014;2022-08-01T05:48:08;17.10;99.90
10070;DHT22;5074;53.720;10.014;2022-08-01T05:50:37;17.00;99.90
10070;DHT22;5074;53.720;10.014;2022-08-01T05:53:05;17.10;99.90
10070;DHT22;5074;53.720;10.014;2022-08-01T05:55:35;17.10;99.90
10070;DHT22;5074;53.720;10.014;2022-08-01T05:58:03;17.00;99.90
10070;DHT22;5074;53.720;10.014;2022-08-01T06:00:31;17.00;99.90
10070;DHT22;5074;53.720;10.014;2022-08-01T06:02:59;17.00;99.90
10070;DHT22;5074;53.720;10.014;2022-08-01T06:05:27;17.00;99.90
10070;DHT22;5074;53.720;10.014;2022-08-01T06:07:56;17.00;99.90
10070;DHT22;5074;53.720;10.014;2022-08-01T06:10:24;17.00;99.90
10070;DHT22;5074;53.720;10.014;2022-08-01T06:12:54;17.00;99.90
10070;DHT22;5074;53.720;10.014;2022-08-01T06:15:23;17.00;99.90
10070;DHT22;5074;53.720;10.014;2022-08-01T06:17:52;17.00;99.90
10070;DHT22;5074;53.720;10.014;2022-08-01T06:20:20;17.10;99.90
10070;DHT22;5074;53.720;10.014;2022-08-01T06:22:48;17.10;99.90
10070;DHT22;5074;53.720;10.014;2022-08-01T06:25:18;17.20;99.90
10070;DHT22;5074;53.720;10.014;2022-08-01T06:27:47;17.20;99.90
10070;DHT22;5074;53.720;10.014;2022-08-01T06:30:17;17.20;99.90
10070;DHT22;5074;53.720;10.014;2022-08-01T06:32:46;17.30;99.90
10070;DHT22;5074;53.720;10.014;2022-08-01T06:35:14;17.30;99.90
10070;DHT22;5074;53.720;10.014;2022-08-01T06:37:43;17.30;99.90
10070;DHT22;5074;53.720;10.014;2022-08-01T06:40:13;17.30;99.90
10070;DHT22;5074;53.720;10.014;2022-08-01T06:42:43;17.30;99.90
10070;DHT22;5074;53.720;10.014;2022-08-01T06:45:12;17.40;99.90
10070;DHT22;5074;53.720;10.014;2022-08-01T06:47:43;17.50;99.90
10070;DHT22;5074;53.720;10.014;2022-08-01T06:50:16;17.60;99.90
10070;DHT22;5074;53.720;10.014;2022-08-01T06:52:45;17.60;99.90
10070;DHT22;5074;53.720;10.014;2022-08-01T06:55:13;17.50;99.90
10070;DHT22;5074;53.720;10.014;2022-08-01T06:57:45;17.40;99.90
10070;DHT22;5074;53.720;10.014;2022-08-01T07:00:14;17.40;99.90
10070;DHT22;5074;53.720;10.014;2022-08-01T07:02:46;17.20;99.90
10070;DHT22;5074;53.720;10.014;2022-08-01T07:05:14;17.10;99.90
10070;DHT22;5074;53.720;10.014;2022-08-01T07:07:42;17.10;99.90
10070;DHT22;5074;53.720;10.014;2022-08-01T07:10:11;17.00;99.90
10070;DHT22;5074;53.720;10.014;2022-08-01T07:12:39;17.00;99.90
10070;DHT22;5074;53.720;10.014;2022-08-01T07:15:08;17.00;99.90
10070;DHT22;5074;53.720;10.014;2022-08-01T07:17:37;17.00;99.90
10070;DHT22;5074;53.720;10.014;2022-08-01T07:20:08;17.00;99.90
10070;DHT22;5074;53.720;10.014;2022-08-01T07:22:41;17.00;99.90
10070;DHT22;5074;53.720;10.014;2022-08-01T07:25:13;17.00;99.90
10070;DHT22;5074;53.720;10.014;2022-08-01T07:27:42;17.00;99.90
10070;DHT22;5074;53.720;10.014;2022-08-01T07:30:11;17.00;99.90
10070;DHT22;5074;53.720;10.014;2022-08-01T07:32:39;17.00;99.90
10070;DHT22;5074;53.720;10.014;2022-08-01T07:35:09;17.00;99.90
10070;DHT22;5074;53.720;10.014;2022-08-01T07:37:38;17.00;99.90
10070;DHT22;5074;53.720;10.014;2022-08-01T07:40:15;16.90;99.90
10070;DHT22;5074;53.720;10.014;2022-08-01T07:42:45;17.00;99.90
10070;DHT22;5074;53.720;10.014;2022-08-01T07:45:13;17.00;99.90
10070;DHT22;5074;53.720;10.014;2022-08-01T07:47:42;17.00;99.90
10070;DHT22;5074;53.720;10.014;2022-08-01T07:50:12;17.10;99.90
10070;DHT22;5074;53.720;10.014;2022-08-01T07:52:40;17.00;99.90
10070;DHT22;5074;53.720;10.014;2022-08-01T07:55:08;17.00;99.90
10070;DHT22;5074;53.720;10.014;2022-08-01T07:57:42;17.00;99.90
10070;DHT22;5074;53.720;10.014;2022-08-01T08:00:11;16.90;99.90
10070;DHT22;5074;53.720;10.014;2022-08-01T08:02:39;16.90;99.90
10070;DHT22;5074;53.720;10.014;2022-08-01T08:05:08;16.90;99.90
10070;DHT22;5074;53.720;10.014;2022-08-01T08:07:38;16.90;99.90
10070;DHT22;5074;53.720;10.014;2022-08-01T08:10:07;16.90;99.90
10070;DHT22;5074;53.720;10.014;2022-08-01T08:12:36;16.90;99.90
10070;DHT22;5074;53.720;10.014;2022-08-01T08:15:04;16.80;99.90
10070;DHT22;5074;53.720;10.014;2022-08-01T08:17:33;16.80;99.90
10070;DHT22;5074;53.720;10.014;2022-08-01T08:20:03;16.80;99.90
10070;DHT22;5074;53.720;10.014;2022-08-01T08:22:35;16.60;99.90
10070;DHT22;5074;53.720;10.014;2022-08-01T08:25:06;16.50;99.90
10070;DHT22;5074;53.720;10.014;2022-08-01T08:27:35;16.50;99.90
10070;DHT22;5074;53.720;10.014;2022-08-01T08:30:04;16.40;99.90
10070;DHT22;5074;53.720;10.014;2022-08-01T08:32:34;16.50;99.90
10070;DHT22;5074;53.720;10.014;2022-08-01T08:35:02;16.60;99.90
10070;DHT22;5074;53.720;10.014;2022-08-01T08:37:32;16.60;99.90
10070;DHT22;5074;53.720;10.014;2022-08-01T08:40:06;16.60;99.90
10070;DHT22;5074;53.720;10.014;2022-08-01T08:42:35;16.70;99.90
10070;DHT22;5074;53.720;10.014;2022-08-01T08:45:05;16.80;99.90
10070;DHT22;5074;53.720;10.014;2022-08-01T08:47:37;17.00;99.90
10070;DHT22;5074;53.720;10.014;2022-08-01T08:50:07;17.10;99.90
10070;DHT22;5074;53.720;10.014;2022-08-01T08:52:35;17.10;99.90
10070;DHT22;5074;53.720;10.014;2022-08-01T08:55:08;17.10;99.90
10070;DHT22;5074;53.720;10.014;2022-08-01T08:57:41;17.20;99.90
10070;DHT22;5074;53.720;10.014;2022-08-01T09:00:11;17.30;99.90
10070;DHT22;5074;53.720;10.014;2022-08-01T09:02:41;17.30;99.90
10070;DHT22;5074;53.720;10.014;2022-08-01T09:05:11;17.30;99.90
10070;DHT22;5074;53.720;10.014;2022-08-01T09:07:45;17.40;99.90
10070;DHT22;5074;53.720;10.014;2022-08-01T09:10:14;17.50;99.90
10070;DHT22;5074;53.720;10.014;2022-08-01T09:15:37;17.60;99.90
10070;DHT22;5074;53.720;10.014;2022-08-01T09:18:25;17.60;99.90
10070;DHT22;5074;53.720;10.014;2022-08-01T09:23:39;17.70;99.90
10070;DHT22;5074;53.720;10.014;2022-08-01T09:26:28;17.80;99.90
10070;DHT22;5074;53.720;10.014;2022-08-01T09:28:59;17.80;99.90
10070;DHT22;5074;53.720;10.014;2022-08-01T09:31:38;18.00;99.90
10070;DHT22;5074;53.720;10.014;2022-08-01T09:34:13;18.00;99.90
10070;DHT22;5074;53.720;10.014;2022-08-01T09:36:46;17.90;99.90
10070;DHT22;5074;53.720;10.014;2022-08-01T09:39:20;17.90;99.90
10070;DHT22;5074;53.720;10.014;2022-08-01T09:41:51;17.90;99.90
10070;DHT22;5074;53.720;10.014;2022-08-01T09:44:36;18.00;99.90
10070;DHT22;5074;53.720;10.014;2022-08-01T09:47:09;18.00;99.90
10070;DHT22;5074;53.720;10.014;2022-08-01T09:49:42;18.00;99.90
10070;DHT22;5074;53.720;10.014;2022-08-01T09:52:17;18.10;99.90
10070;DHT22;5074;53.720;10.014;2022-08-01T09:54:52;18.20;99.90
10070;DHT22;5074;53.720;10.014;2022-08-01T09:57:24;18.30;99.90
10070;DHT22;5074;53.720;10.014;2022-08-01T09:59:53;18.30;99.90
10070;DHT22;5074;53.720;10.014;2022-08-01T10:02:27;18.30;99.90
10070;DHT22;5074;53.720;10.014;2022-08-01T10:04:57;18.40;99.90
10070;DHT22;5074;53.720;10.014;2022-08-01T10:07:34;18.40;99.90
10070;DHT22;5074;53.720;10.014;2022-08-01T10:10:10;18.50;99.90
10070;DHT22;5074;53.720;10.014;2022-08-01T10:12:41;18.60;99.90
10070;DHT22;5074;53.720;10.014;2022-08-01T10:15:11;18.70;99.90
10070;DHT22;5074;53.720;10.014;2022-08-01T10:17:45;18.90;99.90
10070;DHT22;5074;53.720;10.014;2022-08-01T10:20:20;18.90;99.90
10070;DHT22;5074;53.720;10.014;2022-08-01T10:22:58;18.90;99.90
10070;DHT22;5074;53.720;10.014;2022-08-01T10:25:34;18.90;99.90
10070;DHT22;5074;53.720;10.014;2022-08-01T10:28:13;18.90;99.90
10070;DHT22;5074;53.720;10.014;2022-08-01T10:30:47;18.80;99.90
10070;DHT22;5074;53.720;10.014;2022-08-01T10:33:15;18.90;99.90
10070;DHT22;5074;53.720;10.014;2022-08-01T10:36:05;19.00;99.90
10070;DHT22;5074;53.720;10.014;2022-08-01T10:38:34;19.10;99.90
10070;DHT22;5074;53.720;10.014;2022-08-01T10:41:03;19.10;99.90
10070;DHT22;5074;53.720;10.014;2022-08-01T10:43:36;19.20;99.90
10070;DHT22;5074;53.720;10.014;2022-08-01T10:46:04;19.30;99.90
10070;DHT22;5074;53.720;10.014;2022-08-01T10:48:38;19.20;99.90
10070;DHT22;5074;53.720;10.014;2022-08-01T10:51:10;19.40;99.90
10070;DHT22;5074;53.720;10.014;2022-08-01T10:53:47;19.50;99.90
10070;DHT22;5074;53.720;10.014;2022-08-01T10:56:20;19.60;99.90
10070;DHT22;5074;53.720;10.014;2022-08-01T10:59:00;19.70;99.90
10070;DHT22;5074;53.720;10.014;2022-08-01T11:01:32;19.70;99.90
10070;DHT22;5074;53.720;10.014;2022-08-01T11:04:07;19.70;99.90
10070;DHT22;5074;53.720;10.014;2022-08-01T11:06:46;19.70;99.90
10070;DHT22;5074;53.720;10.014;2022-08-01T11:09:24;19.60;99.90
10070;DHT22;5074;53.720;10.014;2022-08-01T11:12:04;19.70;99.90
10070;DHT22;5074;53.720;10.014;2022-08-01T11:17:59;19.60;99.90
10070;DHT22;5074;53.720;10.014;2022-08-01T11:20:30;19.60;99.90
10070;DHT22;5074;53.720;10.014;2022-08-01T11:29:14;19.70;99.90
10070;DHT22;5074;53.720;10.014;2022-08-01T11:31:49;19.90;99.90
10070;DHT22;5074;53.720;10.014;2022-08-01T11:34:18;19.90;99.90
10070;DHT22;5074;53.720;10.014;2022-08-01T11:36:47;19.90;99.90
10070;DHT22;5074;53.720;10.014;2022-08-01T11:39:25;20.00;99.90
10070;DHT22;5074;53.720;10.014;2022-08-01T11:41:55;20.10;99.90
10070;DHT22;5074;53.720;10.014;2022-08-01T11:44:47;20.10;99.90
10070;DHT22;5074;53.720;10.014;2022-08-01T11:47:17;20.00;99.90
10070;DHT22;5074;53.720;10.014;2022-08-01T11:49:47;19.90;99.90
10070;DHT22;5074;53.720;10.014;2022-08-01T11:52:25;19.90;99.90
10070;DHT22;5074;53.720;10.014;2022-08-01T11:54:55;19.90;99.90
10070;DHT22;5074;53.720;10.014;2022-08-01T11:57:26;20.00;99.90
10070;DHT22;5074;53.720;10.014;2022-08-01T12:00:00;20.20;99.90
10070;DHT22;5074;53.720;10.014;2022-08-01T12:02:35;20.30;99.90
10070;DHT22;5074;53.720;10.014;2022-08-01T12:05:05;20.30;99.90
10070;DHT22;5074;53.720;10.014;2022-08-01T12:07:38;20.50;99.90
10070;DHT22;5074;53.720;10.014;2022-08-01T12:10:08;20.90;99.90
10070;DHT22;5074;53.720;10.014;2022-08-01T12:12:41;20.80;99.90
10070;DHT22;5074;53.720;10.014;2022-08-01T12:15:11;20.90;99.90
10070;DHT22;5074;53.720;10.014;2022-08-01T12:17:42;20.90;99.90
10070;DHT22;5074;53.720;10.014;2022-08-01T12:20:26;21.00;99.90
10070;DHT22;5074;53.720;10.014;2022-08-01T12:22:57;21.20;99.90
10070;DHT22;5074;53.720;10.014;2022-08-01T12:25:27;21.30;99.90
10070;DHT22;5074;53.720;10.014;2022-08-01T12:27:59;21.40;99.90
10070;DHT22;5074;53.720;10.014;2022-08-01T12:30:28;21.60;99.90
10070;DHT22;5074;53.720;10.014;2022-08-01T12:32:59;21.90;99.90
10070;DHT22;5074;53.720;10.014;2022-08-01T12:35:28;21.80;99.90
10070;DHT22;5074;53.720;10.014;2022-08-01T12:37:59;21.80;99.90
10070;DHT22;5074;53.720;10.014;2022-08-01T12:40:30;21.80;99.90
10070;DHT22;5074;53.720;10.014;2022-08-01T12:43:00;22.20;99.90
10070;DHT22;5074;53.720;10.014;2022-08-01T12:45:30;23.30;99.90
10070;DHT22;5074;53.720;10.014;2022-08-01T12:48:03;24.40;99.90
10070;DHT22;5074;53.720;10.014;2022-08-01T12:50:35;25.00;99.90
10070;DHT22;5074;53.720;10.014;2022-08-01T12:53:06;25.60;99.60
10070;DHT22;5074;53.720;10.014;2022-08-01T12:55:45;25.60;99.20
10070;DHT22;5074;53.720;10.014;2022-08-01T12:58:30;25.90;99.00
10070;DHT22;5074;53.720;10.014;2022-08-01T13:01:04;26.50;97.70
10070;DHT22;5074;53.720;10.014;2022-08-01T13:03:35;26.50;96.70
10070;DHT22;5074;53.720;10.014;2022-08-01T13:06:09;26.30;96.00
10070;DHT22;5074;53.720;10.014;2022-08-01T13:08:38;26.30;95.20
10070;DHT22;5074;53.720;10.014;2022-08-01T13:11:07;27.00;95.20
10070;DHT22;5074;53.720;10.014;2022-08-01T13:13:41;27.30;94.60
10070;DHT22;5074;53.720;10.014;2022-08-01T13:16:10;27.40;94.50
10070;DHT22;5074;53.720;10.014;2022-08-01T13:19:00;27.50;93.80
10070;DHT22;5074;53.720;10.014;2022-08-01T13:21:28;26.30;94.20
10070;DHT22;5074;53.720;10.014;2022-08-01T13:24:22;25.50;95.40
10070;DHT22;5074;53.720;10.014;2022-08-01T13:26:51;26.00;95.70
10070;DHT22;5074;53.720;10.014;2022-08-01T13:29:28;26.00;95.20
10070;DHT22;5074;53.720;10.014;2022-08-01T13:31:57;26.20;95.70
10070;DHT22;5074;53.720;10.014;2022-08-01T13:34:31;26.10;94.90
10070;DHT22;5074;53.720;10.014;2022-08-01T13:37:00;26.10;95.40
10070;DHT22;5074;53.720;10.014;2022-08-01T13:39:29;26.40;94.60
10070;DHT22;5074;53.720;10.014;2022-08-01T13:42:11;27.30;94.40
10070;DHT22;5074;53.720;10.014;2022-08-01T13:44:45;26.70;93.40
10070;DHT22;5074;53.720;10.014;2022-08-01T13:47:13;26.50;93.90
10070;DHT22;5074;53.720;10.014;2022-08-01T13:49:44;26.40;93.30
10070;DHT22;5074;53.720;10.014;2022-08-01T13:52:12;26.10;93.40
10070;DHT22;5074;53.720;10.014;2022-08-01T13:54:40;26.10;93.90
10070;DHT22;5074;53.720;10.014;2022-08-01T13:57:08;26.20;94.10
10070;DHT22;5074;53.720;10.014;2022-08-01T13:59:37;26.30;93.80
10070;DHT22;5074;53.720;10.014;2022-08-01T14:02:05;26.40;93.70
10070;DHT22;5074;53.720;10.014;2022-08-01T14:04:34;26.50;93.30
10070;DHT22;5074;53.720;10.014;2022-08-01T14:07:03;26.30;94.30
10070;DHT22;5074;53.720;10.014;2022-08-01T14:09:37;26.30;93.30
10070;DHT22;5074;53.720;10.014;2022-08-01T14:12:25;26.10;93.50
10070;DHT22;5074;53.720;10.014;2022-08-01T14:14:53;26.60;93.40
10070;DHT22;5074;53.720;10.014;2022-08-01T14:17:21;27.20;92.20
10070;DHT22;5074;53.720;10.014;2022-08-01T14:19:49;26.40;93.00
10070;DHT22;5074;53.720;10.014;2022-08-01T14:22:19;26.20;93.20
10070;DHT22;5074;53.720;10.014;2022-08-01T14:24:47;26.30;93.50
10070;DHT22;5074;53.720;10.014;2022-08-01T14:27:15;25.40;94.40
10070;DHT22;5074;53.720;10.014;2022-08-01T14:29:43;25.70;94.40
10070;DHT22;5074;53.720;10.014;2022-08-01T14:32:29;26.20;93.80
10070;DHT22;5074;53.720;10.014;2022-08-01T14:34:59;26.40;93.70
10070;DHT22;5074;53.720;10.014;2022-08-01T14:37:29;26.50;94.00
10070;DHT22;5074;53.720;10.014;2022-08-01T14:40:04;26.90;93.70
10070;DHT22;5074;53.720;10.014;2022-08-01T14:42:35;26.70;93.10
10070;DHT22;5074;53.720;10.014;2022-08-01T14:45:05;27.30;93.20
10070;DHT22;5074;53.720;10.014;2022-08-01T14:47:36;27.10;92.60
10070;DHT22;5074;53.720;10.014;2022-08-01T14:50:05;26.60;92.70
10070;DHT22;5074;53.720;10.014;2022-08-01T14:52:36;26.90;92.90
10070;DHT22;5074;53.720;10.014;2022-08-01T14:55:05;26.90;92.40
10070;DHT22;5074;53.720;10.014;2022-08-01T14:57:35;27.00;92.60
10070;DHT22;5074;53.720;10.014;2022-08-01T15:00:05;27.80;92.80
10070;DHT22;5074;53.720;10.014;2022-08-01T15:02:36;27.70;91.50
10070;DHT22;5074;53.720;10.014;2022-08-01T15:05:05;27.40;91.40
10070;DHT22;5074;53.720;10.014;2022-08-01T15:07:33;27.00;91.50
10070;DHT22;5074;53.720;10.014;2022-08-01T15:10:18;26.30;92.40
10070;DHT22;5074;53.720;10.014;2022-08-01T15:12:47;26.40;93.00
10070;DHT22;5074;53.720;10.014;2022-08-01T15:15:16;26.80;92.30
10070;DHT22;5074;53.720;10.014;2022-08-01T15:17:45;26.70;92.70
10070;DHT22;5074;53.720;10.014;2022-08-01T15:20:13;26.70;93.00
10070;DHT22;5074;53.720;10.014;2022-08-01T15:22:42;27.70;92.00
10070;DHT22;5074;53.720;10.014;2022-08-01T15:25:10;26.60;91.50
10070;DHT22;5074;53.720;10.014;2022-08-01T15:27:39;25.50;93.00
10070;DHT22;5074;53.720;10.014;2022-08-01T15:30:08;25.50;93.20
10070;DHT22;5074;53.720;10.014;2022-08-01T15:32:36;25.50;93.50
10070;DHT22;5074;53.720;10.014;2022-08-01T15:35:05;26.00;93.80
10070;DHT22;5074;53.720;10.014;2022-08-01T15:37:36;26.10;93.20
10070;DHT22;5074;53.720;10.014;2022-08-01T15:40:09;27.00;93.00
10070;DHT22;5074;53.720;10.014;2022-08-01T15:42:38;27.40;92.30
10070;DHT22;5074;53.720;10.014;2022-08-01T15:45:08;27.20;92.00
10070;DHT22;5074;53.720;10.014;2022-08-01T15:47:56;27.20;92.30
10070;DHT22;5074;53.720;10.014;2022-08-01T15:50:25;27.70;92.30
10070;DHT22;5074;53.720;10.014;2022-08-01T15:52:53;27.70;92.10
10070;DHT22;5074;53.720;10.014;2022-08-01T15:55:21;27.80;91.40
10070;DHT22;5074;53.720;10.014;2022-08-01T15:57:50;26.90;91.90
10070;DHT22;5074;53.720;10.014;2022-08-01T16:00:18;26.90;92.20
10070;DHT22;5074;53.720;10.014;2022-08-01T16:02:46;26.80;92.20
10070;DHT22;5074;53.720;10.014;2022-08-01T16:05:15;27.30;92.00
10070;DHT22;5074;53.720;10.014;2022-08-01T16:07:46;27.20;91.90
10070;DHT22;5074;53.720;10.014;2022-08-01T16:10:27;26.80;92.10
10070;DHT22;5074;53.720;10.014;2022-08-01T16:12:57;26.40;92.00
10070;DHT22;5074;53.720;10.014;2022-08-01T16:15:33;26.20;92.10